MDLR/LRM METAR and TAF weather

Enter ICAO airport designator
Station Type Date Time Source
MDLR METAR 2020/06/05 11:00 UTC NOAA

MDLR 051100Z 09006KT 9999 FEW016 23/23 Q1017


Station Type Date Time Source
MDLR Decoded METAR 2020/06/05 11:00 UTC NOAA

La Romana International Airport, Dominican Republic (MDLR) 18-25N 068-57W
Jun 05, 2020 - 07:00 AM EDT / 2020.06.05 1100 UTC
Wind: from the E (090 degrees) at 7 MPH (6 KT):0
Visibility: greater than 7 mile(s):0
Sky conditions: mostly clear
Temperature: 73 F (23 C)
Dew Point: 73 F (23 C)
Relative Humidity: 100%
Pressure (altimeter): 30.03 in. Hg (1017 hPa)
ob: MDLR 051100Z 09006KT 9999 FEW016 23/23 Q1017
cycle: 11

Station Type Date Time Source
MDLR TAF 2020/06/05 12:33 UTC NOAA

TAF TAF MDLR 051000Z 0512/0612 11010KT 9999 SCT016

Example: see airport list